Time;durP1;ratioP1;P1;durP2;ratioP2;P2;SDS_P1;SDS_P2;PMS_P1;PMS_P2;Temp;Humidity;BMP_temperature;BMP_pressure;BME280_temperature;BME280_humidity;BME280_pressure;Samples;Min_cycle;Max_cycle;Signal;HPM_P1;HPM_P2
2022/07/10 00:00:31;;;;;;;7.80;7.10;;;;;;;20.03;64.47;99049.13;5000579;28;20025;-96
2022/07/10 00:02:58;;;;;;;12.50;7.30;;;;;;;20.02;65.47;99043.97;5001433;28;20080;-94
2022/07/10 00:05:25;;;;;;;11.02;6.93;;;;;;;20.10;64.57;99054.03;5016559;28;20465;-93
2022/07/10 00:07:52;;;;;;;7.25;6.53;;;;;;;19.97;65.25;99051.25;4983621;28;20041;-93
2022/07/10 00:10:18;;;;;;;9.68;7.00;;;;;;;19.92;65.31;99024.19;4983865;28;20029;-93
2022/07/10 00:12:45;;;;;;;10.68;6.90;;;;;;;20.01;65.08;99035.00;4999430;28;20120;-93
2022/07/10 00:15:11;;;;;;;9.13;6.57;;;;;;;20.03;65.18;99045.59;5016693;28;20029;-92
2022/07/10 00:17:40;;;;;;;8.98;6.97;;;;;;;20.00;65.31;99049.78;5000469;28;20022;-93
2022/07/10 00:20:07;;;;;;;8.25;7.45;;;;;;;19.95;65.24;99045.34;5017116;28;20036;-93
2022/07/10 00:22:36;;;;;;;8.25;7.38;;;;;;;20.05;65.57;99067.91;4999529;28;20041;-93
2022/07/10 00:25:03;;;;;;;8.35;7.15;;;;;;;19.87;65.52;99046.22;5000130;28;20024;-93
2022/07/10 00:27:30;;;;;;;8.48;7.20;;;;;;;19.93;65.40;99053.09;5016818;28;20045;-94
2022/07/10 00:29:57;;;;;;;7.22;6.53;;;;;;;20.01;64.90;99059.59;4999696;28;20479;-93
2022/07/10 00:32:24;;;;;;;15.90;7.22;;;;;;;19.74;66.55;99039.94;5032778;28;20021;-93
2022/07/10 00:34:52;;;;;;;13.85;6.90;;;;;;;19.83;65.68;99056.25;5016227;28;20462;-93
2022/07/10 00:37:18;;;;;;;11.27;7.60;;;;;;;19.88;65.66;99058.78;5016991;28;20124;-93
2022/07/10 00:39:45;;;;;;;9.40;7.13;;;;;;;19.89;65.67;99051.38;4999996;28;20072;-93
2022/07/10 00:42:14;;;;;;;8.32;7.03;;;;;;;19.85;65.81;99050.44;4984119;28;20033;-93
2022/07/10 00:44:41;;;;;;;8.38;6.63;;;;;;;19.74;65.61;99053.59;4983436;28;20041;-93
2022/07/10 00:47:07;;;;;;;8.68;6.57;;;;;;;19.83;65.34;99047.25;5000104;28;20025;-94
2022/07/10 00:49:33;;;;;;;7.00;6.28;;;;;;;19.75;65.69;99062.59;4983804;28;20025;-92
2022/07/10 00:52:00;;;;;;;7.38;6.38;;;;;;;19.84;65.41;99054.31;4999880;28;20053;-92
2022/07/10 00:54:27;;;;;;;10.23;9.00;;;;;;;19.77;65.88;99054.88;5000259;28;20025;-93
2022/07/10 00:56:52;;;;;;;10.48;6.60;;;;;;;19.66;66.03;99045.47;4999975;28;20487;-93
2022/07/10 00:59:18;;;;;;;7.07;5.53;;;;;;;19.75;64.54;99036.06;5000847;28;20083;-92
2022/07/10 01:01:44;;;;;;;5.88;5.25;;;;;;;19.76;65.19;99048.59;5003941;28;20020;-92
2022/07/10 01:04:12;;;;;;;5.82;5.03;;;;;;;19.80;63.49;99048.75;5003379;28;20424;-93
2022/07/10 01:06:37;;;;;;;7.32;5.13;;;;;;;19.78;63.34;99038.13;5003604;28;20021;-92
2022/07/10 01:09:03;;;;;;;7.50;5.50;;;;;;;19.74;64.13;99055.56;5003284;28;20112;-92
2022/07/10 01:11:31;;;;;;;9.63;5.25;;;;;;;19.61;64.75;99027.38;5019571;28;20030;-93
2022/07/10 01:14:00;;;;;;;11.30;5.70;;;;;;;19.65;65.34;99038.41;5003238;28;20399;-92
2022/07/10 01:16:26;;;;;;;5.95;5.10;;;;;;;19.67;65.12;99033.41;4986240;28;20133;-92
2022/07/10 01:18:52;;;;;;;6.68;5.57;;;;;;;19.62;65.36;99037.16;5003319;28;20391;-92
2022/07/10 01:21:31;;;;;;;6.43;5.82;;;;;;;19.54;65.66;99032.56;5019488;28;20025;-93
2022/07/10 01:23:57;;;;;;;10.25;5.53;;;;;;;19.49;65.43;99017.19;5003832;28;20041;-93
2022/07/10 01:26:24;;;;;;;6.78;5.93;;;;;;;19.58;66.42;99036.22;5019525;28;20022;-92
2022/07/10 01:28:51;;;;;;;8.30;5.82;;;;;;;19.51;65.91;99027.81;4986492;28;20076;-93
2022/07/10 01:31:34;;;;;;;6.90;5.60;;;;;;;19.50;66.35;99035.16;5002723;28;20030;-92
2022/07/10 01:34:01;;;;;;;9.20;5.47;;;;;;;19.46;66.65;99028.00;5002058;28;20018;-94
2022/07/10 01:36:30;;;;;;;6.85;5.80;;;;;;;19.44;65.84;99036.50;5018458;28;20028;-93
2022/07/10 01:38:57;;;;;;;9.73;5.63;;;;;;;19.29;66.27;99007.13;5002233;28;20029;-92
2022/07/10 01:41:23;;;;;;;9.80;5.63;;;;;;;19.36;67.43;99016.38;5018463;28;20117;-92
2022/07/10 01:43:48;;;;;;;7.05;6.07;;;;;;;19.37;66.97;99023.41;4985818;28;20029;-93
2022/07/10 01:46:15;;;;;;;7.60;6.07;;;;;;;19.32;67.47;99020.09;5003114;28;20109;-93
2022/07/10 01:48:40;;;;;;;6.78;5.50;;;;;;;19.42;66.46;99029.78;5002329;28;20116;-92
2022/07/10 01:51:07;;;;;;;7.13;5.82;;;;;;;19.18;67.41;99009.47;5002065;28;20118;-94
2022/07/10 01:53:32;;;;;;;7.57;6.05;;;;;;;19.19;67.88;99027.44;5002587;28;20021;-94
2022/07/10 01:55:59;;;;;;;7.28;6.00;;;;;;;19.10;67.84;99013.88;5002946;28;20037;-93
2022/07/10 01:58:25;;;;;;;11.40;6.93;;;;;;;18.97;68.06;98991.19;5004245;28;20034;-95
2022/07/10 02:00:56;;;;;;;9.10;6.30;;;;;;;19.08;67.75;99021.59;5004593;28;20120;-94
2022/07/10 02:06:06;;;;;;;6.45;5.72;;;;;;;18.92;67.42;98991.38;5001847;28;20057;-93
2022/07/10 02:08:32;;;;;;;7.10;6.40;;;;;;;18.83;68.29;98987.91;4966872;28;20030;-94
2022/07/10 02:10:58;;;;;;;7.72;6.53;;;;;;;18.82;68.04;98980.06;4983971;28;20084;-95
2022/07/10 02:13:27;;;;;;;8.80;6.20;;;;;;;18.89;68.68;99004.91;4968414;28;20108;-96
2022/07/10 02:15:53;;;;;;;7.90;6.10;;;;;;;18.81;68.41;99003.81;4983612;28;20033;-96
2022/07/10 02:18:19;;;;;;;7.82;6.15;;;;;;;18.81;68.22;98998.38;4983617;28;20125;-95
2022/07/10 02:20:47;;;;;;;6.28;5.63;;;;;;;18.91;68.10;99006.16;4982770;28;20037;-94
2022/07/10 02:23:14;;;;;;;7.25;6.55;;;;;;;18.74;69.22;98998.88;4984626;28;20483;-95
2022/07/10 02:25:40;;;;;;;7.05;5.75;;;;;;;18.88;68.15;98992.38;4967520;28;20029;-96
2022/07/10 02:28:06;;;;;;;7.43;6.10;;;;;;;18.77;68.98;98991.94;4967994;28;20040;-95
2022/07/10 02:30:33;;;;;;;6.93;6.22;;;;;;;18.92;68.18;98998.75;4983459;28;20079;-96
2022/07/10 02:32:59;;;;;;;7.03;6.32;;;;;;;18.87;68.88;99009.88;4967214;28;20037;-95
2022/07/10 02:35:24;;;;;;;10.23;6.57;;;;;;;18.80;68.77;99001.41;4983891;28;20495;-96
2022/07/10 02:37:51;;;;;;;7.05;6.25;;;;;;;18.78;69.74;99007.19;4968058;28;20033;-92
2022/07/10 02:40:16;;;;;;;7.07;5.90;;;;;;;18.78;69.34;99009.94;4967292;28;20029;-93
2022/07/10 02:42:42;;;;;;;7.53;6.47;;;;;;;18.66;69.84;98994.28;4966613;28;20025;-92
2022/07/10 02:45:08;;;;;;;6.93;6.03;;;;;;;18.81;69.20;99017.47;4966432;28;20392;-92
2022/07/10 02:47:35;;;;;;;9.10;6.75;;;;;;;18.73;69.55;99001.94;4965324;28;20037;-93
2022/07/10 02:50:01;;;;;;;8.30;6.40;;;;;;;18.65;70.00;98997.31;5014443;28;20034;-93
2022/07/10 02:52:30;;;;;;;6.72;5.90;;;;;;;18.64;69.19;98993.81;4998710;28;20025;-93
2022/07/10 02:54:57;;;;;;;9.40;6.65;;;;;;;18.56;69.63;98995.44;4998382;28;20484;-93
2022/07/10 02:57:22;;;;;;;9.60;5.70;;;;;;;18.49;70.71;98997.91;4981196;28;20498;-93
2022/07/10 02:59:48;;;;;;;8.77;6.50;;;;;;;18.55;70.43;99014.88;4966664;28;20018;-94
2022/07/10 03:02:13;;;;;;;7.25;6.53;;;;;;;18.50;70.56;98998.72;4965355;28;20026;-93
2022/07/10 03:04:39;;;;;;;8.35;6.57;;;;;;;18.58;69.95;98992.41;4972432;28;20053;-93
2022/07/10 03:07:07;;;;;;;9.45;6.30;;;;;;;18.63;69.87;99002.31;5017222;28;20025;-93
2022/07/10 03:09:33;;;;;;;7.95;6.70;;;;;;;18.71;70.48;99015.09;5000912;28;20030;-93
2022/07/10 03:11:59;;;;;;;7.22;6.47;;;;;;;18.60;69.89;98997.53;5016874;28;20063;-93
2022/07/10 03:14:25;;;;;;;9.65;6.80;;;;;;;18.59;70.19;99002.16;5016110;28;20033;-93
2022/07/10 03:16:51;;;;;;;8.57;6.60;;;;;;;18.57;69.67;99009.88;5016977;28;20029;-92
2022/07/10 03:19:17;;;;;;;8.00;6.68;;;;;;;18.65;69.10;98995.38;5016417;28;20560;-92
2022/07/10 03:21:44;;;;;;;10.68;6.82;;;;;;;18.53;70.21;99004.31;4999206;28;20052;-93
2022/07/10 03:24:09;;;;;;;7.40;6.60;;;;;;;18.51;69.64;99001.13;5000405;28;20438;-93
2022/07/10 03:26:36;;;;;;;15.93;7.40;;;;;;;18.51;70.10;99003.84;4983712;28;20087;-92
2022/07/10 03:29:02;;;;;;;8.40;6.82;;;;;;;18.53;69.99;98996.13;5016855;28;20040;-93
2022/07/10 03:31:28;;;;;;;11.27;6.75;;;;;;;18.63;69.73;99016.75;5016755;28;20021;-93
2022/07/10 03:33:54;;;;;;;7.35;6.55;;;;;;;18.58;69.24;99008.75;5000304;28;20028;-93
2022/07/10 03:36:22;;;;;;;8.13;6.22;;;;;;;18.62;69.58;99004.25;4999883;28;20479;-93
2022/07/10 03:38:48;;;;;;;7.63;6.45;;;;;;;18.51;69.45;98997.56;4983698;28;20030;-93
2022/07/10 03:41:15;;;;;;;8.80;6.95;;;;;;;18.46;70.00;98995.03;5000907;28;20036;-93
2022/07/10 03:43:41;;;;;;;9.02;6.95;;;;;;;18.51;70.03;99003.03;5034079;28;20059;-93
2022/07/10 03:46:06;;;;;;;8.52;7.10;;;;;;;18.68;69.79;99013.03;4999859;28;20021;-93
2022/07/10 03:48:33;;;;;;;7.50;6.22;;;;;;;18.48;69.83;98996.31;4983514;28;20033;-94
2022/07/10 03:51:00;;;;;;;10.10;7.40;;;;;;;18.54;70.57;99005.88;5033287;28;20112;-93
2022/07/10 03:53:27;;;;;;;8.30;6.85;;;;;;;18.53;69.99;98990.69;5016772;28;20025;-93
2022/07/10 03:55:53;;;;;;;7.88;7.07;;;;;;;18.56;69.12;98978.31;4999677;28;20071;-93
2022/07/10 03:58:19;;;;;;;9.70;7.18;;;;;;;18.69;69.73;98987.34;5001056;28;20113;-93
2022/07/10 04:00:45;;;;;;;9.75;6.68;;;;;;;18.68;69.31;98986.56;5000346;28;20124;-93
2022/07/10 04:03:11;;;;;;;8.02;6.80;;;;;;;18.60;69.76;98975.72;5000786;28;20040;-93
2022/07/10 04:05:36;;;;;;;7.90;6.60;;;;;;;18.76;69.01;98991.16;4985641;28;20492;-93
2022/07/10 04:08:19;;;;;;;8.05;7.25;;;;;;;18.70;69.49;98988.97;5111945;27;20447;-93
2022/07/10 04:10:44;;;;;;;10.65;7.55;;;;;;;18.62;69.45;98979.72;5077439;28;20102;-92
2022/07/10 04:13:10;;;;;;;8.20;7.40;;;;;;;18.78;69.73;98988.09;5077575;28;20490;-92
2022/07/10 04:15:35;;;;;;;8.95;7.15;;;;;;;18.88;69.50;98998.63;5077547;28;20022;-92
2022/07/10 04:18:01;;;;;;;8.85;7.10;;;;;;;18.81;68.63;98983.94;5078470;28;20031;-92
2022/07/10 04:20:26;;;;;;;11.13;7.03;;;;;;;19.03;68.45;98999.16;5076469;28;20428;-91
2022/07/10 04:22:52;;;;;;;10.32;6.78;;;;;;;19.02;68.42;98998.34;5077744;28;20027;-93
2022/07/10 04:25:17;;;;;;;9.95;6.60;;;;;;;19.13;68.44;99006.94;5077721;28;20028;-92
2022/07/10 04:27:43;;;;;;;9.65;6.60;;;;;;;19.20;67.69;99009.16;5077680;28;20387;-93
2022/07/10 04:30:09;;;;;;;8.43;6.07;;;;;;;19.27;67.97;99015.63;5076754;28;20022;-93
2022/07/10 04:32:34;;;;;;;6.40;5.15;;;;;;;19.42;65.35;99014.22;5076629;28;20028;-92
2022/07/10 04:35:01;;;;;;;13.43;5.68;;;;;;;19.47;66.30;99010.50;5076978;28;20054;-92
2022/07/10 04:37:26;;;;;;;6.97;5.75;;;;;;;19.38;66.67;98992.25;5076188;28;20099;-92
2022/07/10 04:39:52;;;;;;;11.27;6.13;;;;;;;19.60;65.61;99012.09;5076105;28;20047;-92
2022/07/10 04:42:38;;;;;;;9.38;5.32;;;;;;;19.59;65.06;98994.94;5076124;28;20056;-92
2022/07/10 04:45:08;;;;;;;6.70;5.38;;;;;;;19.67;65.99;99017.84;5078918;28;20020;-93
2022/07/10 04:47:34;;;;;;;13.15;5.60;;;;;;;19.76;65.11;99025.97;5076910;28;20028;-92
2022/07/10 04:49:59;;;;;;;6.40;5.00;;;;;;;19.71;64.33;99001.56;5076779;28;20488;-92
2022/07/10 04:52:25;;;;;;;5.97;5.38;;;;;;;19.67;64.63;99001.44;5092999;28;20477;-92
2022/07/10 04:54:50;;;;;;;9.40;5.70;;;;;;;19.82;65.74;99008.22;5076838;28;20051;-92
2022/07/10 04:57:16;;;;;;;5.82;4.55;;;;;;;19.87;63.43;99001.72;5076743;28;20504;-92
2022/07/10 04:59:41;;;;;;;7.82;4.78;;;;;;;19.96;63.99;99005.97;5076137;28;20028;-96
2022/07/10 05:02:08;;;;;;;8.57;5.30;;;;;;;20.01;64.11;99012.34;5075890;28;20489;-92
2022/07/10 05:04:33;;;;;;;8.00;4.80;;;;;;;20.13;62.76;99009.59;5077609;28;20503;-92
2022/07/10 05:06:59;;;;;;;5.75;4.50;;;;;;;20.18;61.85;98992.97;5077055;28;20051;-92
2022/07/10 05:09:24;;;;;;;8.77;4.63;;;;;;;20.14;61.97;99000.25;5076046;28;20122;-92
2022/07/10 05:11:50;;;;;;;8.95;4.70;;;;;;;20.05;62.39;98983.97;5075494;28;20093;-92
2022/07/10 05:14:16;;;;;;;8.20;4.80;;;;;;;20.24;62.88;99013.47;5075916;28;20016;-93
2022/07/10 05:16:41;;;;;;;6.95;4.60;;;;;;;20.25;62.23;99004.13;5075439;28;20450;-92
2022/07/10 05:19:07;;;;;;;14.07;5.10;;;;;;;20.35;61.69;99016.56;5066682;28;20020;-93
2022/07/10 05:21:32;;;;;;;5.55;3.97;;;;;;;20.41;60.78;99011.66;5063321;28;20052;-93
2022/07/10 05:23:58;;;;;;;4.38;3.80;;;;;;;20.48;61.09;99015.41;5079045;28;20020;-92
2022/07/10 05:26:23;;;;;;;6.20;4.03;;;;;;;20.56;60.41;99003.53;5062224;28;20032;-91
2022/07/10 05:28:49;;;;;;;6.13;4.53;;;;;;;20.82;60.21;99015.28;5062474;28;20024;-92
2022/07/10 05:31:14;;;;;;;8.70;5.80;;;;;;;20.87;60.99;99021.28;5096001;28;20020;-92
2022/07/10 05:33:43;;;;;;;14.07;5.18;;;;;;;20.90;60.87;99001.47;5061788;28;20035;-92
2022/07/10 05:36:08;;;;;;;11.80;5.30;;;;;;;21.04;60.03;98998.31;5063655;28;20386;-92
2022/07/10 05:38:34;;;;;;;5.20;3.92;;;;;;;21.05;59.75;98983.50;5062373;28;20036;-91
2022/07/10 05:40:59;;;;;;;7.57;6.22;;;;;;;21.23;58.68;98994.16;5080242;28;20030;-92
2022/07/10 05:43:25;;;;;;;7.55;4.30;;;;;;;21.30;58.36;98997.88;5062468;28;20473;-93
2022/07/10 05:45:50;;;;;;;4.30;3.90;;;;;;;21.34;58.25;98993.31;5063508;28;20036;-92
2022/07/10 05:48:16;;;;;;;7.13;5.05;;;;;;;21.34;58.76;98989.78;5061970;28;20059;-91
2022/07/10 05:50:42;;;;;;;7.80;3.78;;;;;;;21.49;57.43;98999.19;5061242;28;20059;-91
2022/07/10 05:53:07;;;;;;;5.22;3.80;;;;;;;21.40;56.99;98974.69;5095314;28;20043;-91
2022/07/10 05:55:32;;;;;;;4.10;3.70;;;;;;;21.63;57.31;98993.31;5078570;28;20032;-91
2022/07/10 05:57:59;;;;;;;9.27;4.65;;;;;;;21.80;56.43;98990.22;5078507;28;20036;-92
2022/07/10 06:00:24;;;;;;;5.93;4.18;;;;;;;21.93;55.65;98988.19;5061786;28;20020;-92
2022/07/10 06:02:50;;;;;;;8.27;5.25;;;;;;;21.98;56.70;99002.44;5061239;28;20051;-92
2022/07/10 06:05:15;;;;;;;7.35;4.05;;;;;;;22.06;56.53;98999.84;5061298;28;20032;-92
2022/07/10 06:07:41;;;;;;;7.38;4.10;;;;;;;22.15;54.77;98997.72;5078491;28;20048;-91
2022/07/10 06:10:06;;;;;;;7.75;4.38;;;;;;;22.27;52.78;99003.16;5061757;28;20039;-91
2022/07/10 06:12:32;;;;;;;5.63;3.67;;;;;;;22.30;51.81;98996.94;5077301;28;20050;-91
2022/07/10 06:14:57;;;;;;;6.63;3.58;;;;;;;22.33;51.49;98987.19;5060888;28;20024;-91
2022/07/10 06:17:23;;;;;;;8.57;4.20;;;;;;;22.38;51.72;99006.94;5060884;28;20031;-91
2022/07/10 06:19:48;;;;;;;8.00;3.80;;;;;;;22.38;51.72;98995.97;5061577;28;20071;-92
2022/07/10 06:22:32;;;;;;;6.13;3.58;;;;;;;22.45;50.07;99002.75;5060754;28;20028;-92
2022/07/10 06:25:05;;;;;;;5.38;3.28;;;;;;;22.45;48.88;99002.75;5066921;28;20048;-92
2022/07/10 06:27:30;;;;;;;8.00;3.75;;;;;;;22.49;47.99;99009.91;5061112;28;20131;-91
2022/07/10 06:29:59;;;;;;;9.65;3.58;;;;;;;22.46;48.83;98988.69;5059984;28;20393;-92
2022/07/10 06:32:25;;;;;;;4.45;3.17;;;;;;;22.67;48.77;99006.78;5062541;28;20027;-92
2022/07/10 06:34:51;;;;;;;3.72;3.30;;;;;;;22.76;47.11;98997.19;5061318;28;20024;-92
2022/07/10 06:37:17;;;;;;;4.95;3.67;;;;;;;22.88;47.28;98987.25;5060985;28;20058;-90
2022/07/10 06:39:43;;;;;;;4.70;3.17;;;;;;;23.03;46.65;98985.59;5077262;28;20028;-90
2022/07/10 06:42:09;;;;;;;4.15;2.97;;;;;;;23.18;47.10;98991.03;5062054;28;20511;-91
2022/07/10 06:44:34;;;;;;;6.20;3.17;;;;;;;23.23;46.64;98994.66;5060811;28;20031;-91
2022/07/10 06:49:45;;;;;;;8.82;3.40;;;;;;;23.20;46.25;98974.16;5079431;28;20027;-92
2022/07/10 06:52:11;;;;;;;5.68;3.70;;;;;;;23.34;46.03;98974.44;5060075;28;20089;-91
2022/07/10 06:54:37;;;;;;;6.63;3.20;;;;;;;23.45;45.66;98977.41;5076483;28;20028;-91
2022/07/10 06:57:04;;;;;;;11.25;3.38;;;;;;;23.29;45.75;98971.22;5076981;28;20028;-91
2022/07/10 06:59:32;;;;;;;4.07;3.17;;;;;;;23.43;45.68;98973.41;5077295;28;20028;-93
2022/07/10 07:01:58;;;;;;;6.50;3.13;;;;;;;23.31;46.33;98966.16;5077841;28;20505;-90
2022/07/10 07:04:23;;;;;;;5.65;3.67;;;;;;;23.50;46.06;98985.34;5060813;28;20173;-91
2022/07/10 07:06:49;;;;;;;5.72;3.30;;;;;;;23.35;45.12;98980.75;5060124;28;20062;-91
2022/07/10 07:09:14;;;;;;;4.55;2.95;;;;;;;23.21;45.13;98975.78;5060057;28;20382;-91
2022/07/10 07:11:40;;;;;;;7.65;3.40;;;;;;;23.18;45.68;98976.50;5077005;28;20097;-91
2022/07/10 07:14:05;;;;;;;5.82;3.40;;;;;;;23.06;47.34;98973.91;5060494;28;20101;-91
2022/07/10 07:16:39;;;;;;;7.68;3.63;;;;;;;23.30;45.86;98990.06;5060395;28;20024;-93
2022/07/10 07:19:05;;;;;;;9.60;3.45;;;;;;;23.50;45.51;98984.56;5078669;28;20031;-94
2022/07/10 07:24:18;;;;;;;3.67;2.90;;;;;;;23.78;44.15;98965.84;5081116;28;20098;-91
2022/07/10 07:26:49;;;;;;;5.18;2.90;;;;;;;23.84;43.89;98973.78;5061324;28;20147;-92
2022/07/10 07:29:15;;;;;;;6.30;3.00;;;;;;;23.77;43.56;98960.72;5077682;28;20035;-91
2022/07/10 07:31:41;;;;;;;12.68;4.70;;;;;;;24.21;43.95;98985.00;5060941;28;20028;-91
2022/07/10 07:34:09;;;;;;;3.95;3.40;;;;;;;24.12;43.17;98982.50;5059663;28;20031;-91
2022/07/10 07:36:34;;;;;;;3.78;2.80;;;;;;;24.41;43.31;98978.22;5060406;28;20462;-91
2022/07/10 07:39:00;;;;;;;15.43;4.20;;;;;;;24.40;43.39;98968.41;5060287;28;20047;-92
2022/07/10 07:41:26;;;;;;;3.38;2.95;;;;;;;24.37;43.21;98985.63;5059595;28;20062;-92
2022/07/10 07:43:52;;;;;;;5.47;3.10;;;;;;;24.53;42.38;98968.19;5060598;28;20058;-93
2022/07/10 07:46:18;;;;;;;6.53;3.30;;;;;;;24.71;42.39;98971.19;5062418;28;20475;-94
2022/07/10 07:48:47;;;;;;;3.45;2.75;;;;;;;24.66;42.06;98963.25;5060853;28;20455;-94
2022/07/10 07:51:13;;;;;;;4.70;2.92;;;;;;;24.85;42.37;98973.34;5060436;28;20063;-93
2022/07/10 07:53:38;;;;;;;5.70;3.28;;;;;;;24.90;43.18;98968.28;5060288;28;20023;-94
2022/07/10 07:56:04;;;;;;;7.60;3.50;;;;;;;24.83;44.54;98987.47;5060071;28;20465;-94
2022/07/10 07:58:30;;;;;;;5.03;3.28;;;;;;;24.77;44.23;98969.69;5061280;28;20080;-95
2022/07/10 08:00:56;;;;;;;4.75;2.92;;;;;;;24.73;45.08;98975.13;5077541;28;20413;-92
2022/07/10 08:03:22;;;;;;;5.32;3.00;;;;;;;24.75;44.42;98964.53;5060497;28;20554;-94
2022/07/10 08:05:48;;;;;;;5.38;3.00;;;;;;;24.56;44.74;98972.94;5060015;28;20024;-93
2022/07/10 08:08:13;;;;;;;6.60;3.38;;;;;;;24.58;44.40;98965.13;5076595;28;20406;-93
2022/07/10 08:10:42;;;;;;;4.03;3.33;;;;;;;24.60;44.84;98976.53;5060729;28;20028;-93
2022/07/10 08:13:08;;;;;;;4.45;3.20;;;;;;;24.52;44.77;98974.84;5061225;28;20028;-94
2022/07/10 08:15:34;;;;;;;6.53;3.60;;;;;;;24.60;45.50;98976.53;5060473;28;20051;-94
2022/07/10 08:18:00;;;;;;;4.95;3.38;;;;;;;24.69;45.65;98974.28;5060503;28;20020;-93
2022/07/10 08:20:26;;;;;;;7.80;5.38;;;;;;;24.65;45.77;98973.47;5060272;28;20023;-93
2022/07/10 08:22:53;;;;;;;6.65;3.70;;;;;;;24.88;45.56;98975.31;5060263;28;20016;-94
2022/07/10 08:25:19;;;;;;;8.70;3.80;;;;;;;24.88;44.30;98964.31;5061677;28;20021;-94
2022/07/10 08:27:44;;;;;;;3.88;3.00;;;;;;;24.60;43.17;98954.53;5076694;28;20023;-93
2022/07/10 08:30:13;;;;;;;6.30;3.42;;;;;;;24.72;43.36;98968.06;5060437;28;20031;-93
2022/07/10 08:32:39;;;;;;;5.13;3.00;;;;;;;24.72;42.60;98965.31;5060750;28;20458;-93
2022/07/10 08:38:30;;;;;;;5.18;3.00;;;;;;;25.29;42.57;98970.72;5053081;28;20053;-94
2022/07/10 08:40:58;;;;;;;3.38;3.03;;;;;;;25.23;41.53;98950.19;5070967;28;20047;-93
2022/07/10 08:43:24;;;;;;;4.35;2.92;;;;;;;25.21;40.75;98949.75;5060536;28;20028;-93
2022/07/10 08:45:56;;;;;;;7.32;3.10;;;;;;;25.19;41.25;98950.13;5059593;28;20440;-94
2022/07/10 08:48:23;;;;;;;3.90;2.90;;;;;;;25.30;41.63;98963.28;5062664;28;20032;-94
2022/07/10 08:50:52;;;;;;;5.38;2.80;;;;;;;25.54;42.01;98970.97;5059206;28;20114;-92
2022/07/10 08:53:26;;;;;;;4.35;2.90;;;;;;;25.68;40.72;98975.06;5061244;28;20023;-93
2022/07/10 08:55:53;;;;;;;4.78;2.90;;;;;;;25.70;40.46;98973.50;5080521;28;20049;-93
2022/07/10 08:58:19;;;;;;;5.32;3.00;;;;;;;25.63;40.35;98959.66;5080575;28;20023;-92
2022/07/10 09:00:44;;;;;;;3.72;3.17;;;;;;;25.35;41.38;98969.22;5079600;28;20020;-92
2022/07/10 09:03:12;;;;;;;4.78;2.90;;;;;;;25.54;40.95;98951.69;5063017;28;20044;-92
2022/07/10 09:05:38;;;;;;;5.53;2.85;;;;;;;25.68;40.86;98972.28;5063964;28;20023;-93
2022/07/10 09:08:04;;;;;;;7.18;3.00;;;;;;;25.84;41.36;98958.22;5062518;28;20047;-93
2022/07/10 09:10:29;;;;;;;3.83;2.85;;;;;;;25.94;41.42;98966.66;5062557;28;20028;-94
2022/07/10 09:13:03;;;;;;;7.53;3.30;;;;;;;26.01;41.64;98955.66;5063376;28;20091;-96
2022/07/10 09:15:32;;;;;;;4.93;3.20;;;;;;;26.11;42.04;98967.97;5063216;28;20070;-93
2022/07/10 09:18:07;;;;;;;7.47;3.10;;;;;;;25.89;43.72;98971.69;5062994;28;20024;-93
2022/07/10 09:20:42;;;;;;;8.48;3.42;;;;;;;25.66;44.74;98969.91;5078662;28;20032;-93
2022/07/10 09:23:18;;;;;;;6.43;3.40;;;;;;;25.39;45.15;98969.25;5063062;28;20061;-93
2022/07/10 09:25:50;;;;;;;4.95;3.30;;;;;;;25.22;45.19;98956.09;5062779;28;20516;-93
2022/07/10 09:28:20;;;;;;;4.28;3.30;;;;;;;25.23;45.82;98960.41;5062913;28;20538;-93
2022/07/10 09:30:45;;;;;;;5.50;3.17;;;;;;;25.12;45.93;98954.75;5062360;28;20092;-93
2022/07/10 09:33:31;;;;;;;4.13;3.13;;;;;;;25.20;45.31;98964.69;5062212;28;20506;-93
2022/07/10 09:36:11;;;;;;;9.23;3.60;;;;;;;25.18;46.43;98981.59;5063936;28;20088;-94
2022/07/10 09:38:43;;;;;;;5.28;3.28;;;;;;;25.25;45.53;98978.16;5081927;28;20123;-93
2022/07/10 09:41:18;;;;;;;4.75;3.00;;;;;;;25.12;44.81;98974.84;5097740;28;20048;-93
2022/07/10 09:43:45;;;;;;;4.65;3.03;;;;;;;25.36;44.39;98973.56;5062650;28;20032;-94
2022/07/10 09:46:10;;;;;;;5.97;3.35;;;;;;;25.61;44.29;98957.28;5097604;28;20092;-94
2022/07/10 09:48:36;;;;;;;4.15;3.13;;;;;;;25.75;43.37;98975.09;5062227;28;20413;-94
2022/07/10 09:51:02;;;;;;;4.10;2.95;;;;;;;25.50;43.14;98958.34;5061693;28;20028;-94
2022/07/10 09:53:27;;;;;;;8.85;3.85;;;;;;;25.61;44.18;98960.03;5078377;28;20030;-94
2022/07/10 09:55:53;;;;;;;5.10;3.25;;;;;;;25.59;44.33;98951.34;5062170;28;20023;-95
2022/07/10 09:58:18;;;;;;;7.45;3.38;;;;;;;25.71;44.23;98949.47;5062679;28;20031;-94
2022/07/10 10:00:47;;;;;;;5.55;3.42;;;;;;;25.88;42.93;98956.28;5078721;28;20482;-93
2022/07/10 10:03:12;;;;;;;6.05;2.90;;;;;;;25.84;42.01;98944.44;5063087;28;20077;-92
2022/07/10 10:05:45;;;;;;;4.53;2.75;;;;;;;25.99;41.60;98963.53;5062021;28;20035;-94
2022/07/10 10:08:40;;;;;;;7.30;3.00;;;;;;;26.20;40.27;98965.66;5077622;28;20575;-95
2022/07/10 10:11:05;;;;;;;4.75;2.83;;;;;;;25.86;41.88;98948.44;5078529;28;20039;-95
2022/07/10 10:13:31;;;;;;;5.07;2.65;;;;;;;26.12;41.05;98952.97;5062165;28;20024;-95
2022/07/10 10:15:56;;;;;;;3.92;2.80;;;;;;;26.29;39.54;98957.03;5078966;28;20060;-93
2022/07/10 10:18:24;;;;;;;3.80;2.60;;;;;;;26.45;39.43;98967.00;5062775;28;20035;-94
2022/07/10 10:20:53;;;;;;;3.78;2.60;;;;;;;26.46;38.63;98960.28;5061401;28;20039;-96
2022/07/10 10:23:22;;;;;;;3.15;2.70;;;;;;;26.46;39.05;98938.19;5078425;28;20020;-93
2022/07/10 10:25:49;;;;;;;6.72;3.20;;;;;;;26.58;39.89;98935.94;5061892;28;20412;-93
2022/07/10 10:28:15;;;;;;;4.97;2.60;;;;;;;26.79;38.08;98942.72;5061675;28;20035;-94
2022/07/10 10:30:45;;;;;;;7.03;3.70;;;;;;;26.79;39.30;98931.66;5079619;28;20036;-95
2022/07/10 10:33:42;;;;;;;3.53;2.75;;;;;;;27.17;38.33;98952.34;5062725;28;20028;-94
2022/07/10 10:36:11;;;;;;;6.22;2.65;;;;;;;27.23;38.58;98929.88;5059028;28;20035;-93
2022/07/10 10:38:58;;;;;;;5.55;3.10;;;;;;;27.15;38.62;98931.81;5079853;28;20032;-92
2022/07/10 10:41:38;;;;;;;4.07;2.50;;;;;;;27.19;38.08;98932.63;5096877;28;20031;-92
2022/07/10 10:44:06;;;;;;;3.67;2.90;;;;;;;27.28;39.08;98954.38;5063578;28;20385;-94
2022/07/10 10:46:32;;;;;;;3.70;2.63;;;;;;;27.20;38.01;98929.44;5095674;28;20024;-94
2022/07/10 10:49:07;;;;;;;9.70;4.18;;;;;;;27.17;38.48;98915.63;5060629;28;20047;-93
2022/07/10 10:52:02;;;;;;;4.55;2.60;;;;;;;27.53;37.95;98935.06;5061341;28;20024;-94
2022/07/10 10:54:48;;;;;;;10.63;2.60;;;;;;;27.64;37.81;98918.47;5078643;28;20111;-93
2022/07/10 10:57:15;;;;;;;5.28;2.90;;;;;;;27.60;38.63;98924.81;5079854;28;20028;-94
2022/07/10 10:59:47;;;;;;;6.65;2.40;;;;;;;27.48;36.93;98922.41;5061747;28;20671;-94
2022/07/10 11:02:26;;;;;;;4.35;2.40;;;;;;;27.26;37.52;98918.81;5060965;28;20063;-93
2022/07/10 11:05:10;;;;;;;4.72;2.65;;;;;;;27.39;37.35;98919.22;5096829;28;20110;-94
2022/07/10 11:07:54;;;;;;;3.47;2.40;;;;;;;27.42;36.48;98912.94;5094798;28;20498;-94
2022/07/10 11:10:33;;;;;;;5.20;2.50;;;;;;;27.52;36.39;98905.84;5079132;28;20114;-95
2022/07/10 11:13:08;;;;;;;4.03;2.67;;;;;;;27.48;36.63;98908.59;5078447;28;20036;-95
2022/07/10 11:15:41;;;;;;;3.15;2.35;;;;;;;27.36;37.05;98895.16;5077355;28;20127;-94
2022/07/10 11:18:11;;;;;;;2.95;2.50;;;;;;;27.44;37.43;98895.94;5063002;28;20020;-95
2022/07/10 11:20:45;;;;;;;5.63;2.85;;;;;;;27.45;36.41;98889.22;5061463;28;20024;-95
2022/07/10 11:23:29;;;;;;;5.18;2.85;;;;;;;27.66;37.23;98911.34;5061892;28;20032;-95
2022/07/10 11:26:29;;;;;;;7.18;3.28;;;;;;;27.75;36.91;98910.97;5094624;28;20473;-93
2022/07/10 11:28:58;;;;;;;4.35;2.70;;;;;;;27.77;36.87;98892.78;5072974;28;20051;-94
2022/07/10 11:31:25;;;;;;;3.67;2.97;;;;;;;27.76;38.23;98882.88;5061552;28;20177;-94
2022/07/10 11:33:55;;;;;;;5.75;2.63;;;;;;;27.71;39.09;98882.53;5060694;28;20093;-94
2022/07/10 11:36:34;;;;;;;6.90;3.30;;;;;;;27.60;40.10;98890.78;5065761;28;20039;-95
2022/07/10 11:39:08;;;;;;;3.70;2.90;;;;;;;27.30;39.45;98869.06;5065398;28;20024;-94
2022/07/10 11:41:41;;;;;;;5.38;3.00;;;;;;;27.18;39.65;98873.75;5063620;28;20024;-94
2022/07/10 11:44:08;;;;;;;4.63;3.00;;;;;;;27.10;39.03;98872.19;5082169;28;20028;-93
2022/07/10 11:46:34;;;;;;;5.22;2.90;;;;;;;27.04;38.93;98857.19;5080230;28;20043;-95